Santa Lucia — 3EGG4 — position and weather

sailwx.info

Track history (hours):
 
Tides and Currents Weather Stations Pressure Air Temp Water Temp Dewpoint Dewpoint Depression Visibility Wind Speed Wind Dir Waves Ship Positions

Santa Lucia

Last reported at 2017-Sep-09 05:45 UTC. Time now 2017-Sep-22 10:16 UTC.
Position N 33°40' E 134°57'.
Warning: this ship's position is 13 days out of date.

Length 289 m; draft 10.2 m.

Type: Ship. MMSI: 371065000.

Date/timePositionNaut miles runAvg speedWind from/ knotsBaromVisibWave heightAir tempDewpointWater temp
2017-Sep-09 05:45N 33°40' E 134°57'414.7
2017-Sep-09 05:30N 33°44' E 134°56'714.5
2017-Sep-09 05:00N 33°51' E 134°55'714.8
2017-Sep-09 04:30N 33°58' E 134°56'714.5
2017-Sep-09 04:00N 34°05' E 134°56'713.7
2017-Sep-09 03:30N 34°12' E 134°57'713.2
2017-Sep-09 03:00N 34°19' E 134°59'714.0
2017-Sep-09 02:30N 34°25' E 135°01'612.7
2017-Sep-09 02:00N 34°31' E 135°04'4 8.0
2017-Sep-09 01:30N 34°35' E 135°04'5 9.2
2017-Sep-09 01:00N 34°37' E 134°59'611.4
2017-Sep-09 00:30N 34°35' E 134°52'611.3
2017-Sep-09 00:00N 34°33' E 134°46'611.2
2017-Sep-08 23:27N 34°37' E 134°40'  
2017-Sep-05 12:22N 34°42' E 134°39'712.7
2017-Sep-05 11:48N 34°35' E 134°42'815.0
2017-Sep-05 11:15N 34°35' E 134°52'416.4
2017-Sep-05 11:00N 34°36' E 134°56'612.7
2017-Sep-05 10:30N 34°36' E 135°04'4 8.1
2017-Sep-05 10:00N 34°34' E 135°08'3 5.3
2017-Sep-05 09:30N 34°32' E 135°07'713.6
2017-Sep-05 09:00N 34°26' E 135°03'815.3
2017-Sep-05 08:29N 34°18' E 134°59'613.2
2017-Sep-05 08:00N 34°12' E 134°60'4 7.9
2017-Sep-05 07:30N 34°08' E 134°60'3 5.8
2017-Sep-05 07:00N 34°05' E 134°60'3 6.2
2017-Sep-05 06:30N 34°02' E 134°60'611.2
2017-Sep-05 06:01N 33°57' E 134°59'  
Track history (hours):
 
Tides and Currents Weather Stations Pressure Air Temp Water Temp Dewpoint Dewpoint Depression Visibility Wind Speed Wind Dir Waves Ship Positions

Santa Lucia

Last reported at 2017-Sep-09 05:45 UTC. Time now 2017-Sep-22 10:16 UTC.
Position N 33°40' E 134°57'.
Warning: this ship's position is 13 days out of date.

Length 289 m; draft 10.2 m.

Type: Ship. MMSI: 371065000.

Date/timePositionNaut miles runAvg speedWind from/ knotsBaromVisibWave heightAir tempDewpointWater temp
2017-Sep-09 05:45N 33°40' E 134°57'414.7
2017-Sep-09 05:30N 33°44' E 134°56'714.5
2017-Sep-09 05:00N 33°51' E 134°55'714.8
2017-Sep-09 04:30N 33°58' E 134°56'714.5
2017-Sep-09 04:00N 34°05' E 134°56'713.7
2017-Sep-09 03:30N 34°12' E 134°57'713.2
2017-Sep-09 03:00N 34°19' E 134°59'714.0
2017-Sep-09 02:30N 34°25' E 135°01'612.7
2017-Sep-09 02:00N 34°31' E 135°04'4 8.0
2017-Sep-09 01:30N 34°35' E 135°04'5 9.2
2017-Sep-09 01:00N 34°37' E 134°59'611.4
2017-Sep-09 00:30N 34°35' E 134°52'611.3
2017-Sep-09 00:00N 34°33' E 134°46'611.2
2017-Sep-08 23:27N 34°37' E 134°40'  
2017-Sep-05 12:22N 34°42' E 134°39'712.7
2017-Sep-05 11:48N 34°35' E 134°42'815.0
2017-Sep-05 11:15N 34°35' E 134°52'416.4
2017-Sep-05 11:00N 34°36' E 134°56'612.7
2017-Sep-05 10:30N 34°36' E 135°04'4 8.1
2017-Sep-05 10:00N 34°34' E 135°08'3 5.3
2017-Sep-05 09:30N 34°32' E 135°07'713.6
2017-Sep-05 09:00N 34°26' E 135°03'815.3
2017-Sep-05 08:29N 34°18' E 134°59'613.2
2017-Sep-05 08:00N 34°12' E 134°60'4 7.9
2017-Sep-05 07:30N 34°08' E 134°60'3 5.8
2017-Sep-05 07:00N 34°05' E 134°60'3 6.2
2017-Sep-05 06:30N 34°02' E 134°60'611.2
2017-Sep-05 06:01N 33°57' E 134°59'  

Dump ship's entire track history